Time;durP1;ratioP1;P1;durP2;ratioP2;P2;SDS_P1;SDS_P2;PMS_P1;PMS_P2;Temp;Humidity;BMP_temperature;BMP_pressure;BME280_temperature;BME280_humidity;BME280_pressure;Samples;Min_cycle;Max_cycle;Signal;HPM_P1;HPM_P2
2022/05/05 00:01:59;;;;;;;32.00;15.27;;;;;;;;;;5037816;28;20084;-66
2022/05/05 00:04:24;;;;;;;33.30;14.88;;;;;;;;;;5039418;28;20419;-66
2022/05/05 00:06:50;;;;;;;32.45;15.25;;;;;;;;;;5036372;28;20079;-66
2022/05/05 00:09:15;;;;;;;34.08;15.25;;;;;;;;;;5034481;28;20037;-66
2022/05/05 00:14:27;;;;;;;30.80;14.82;;;;;;;;;;5043254;28;20577;-66
2022/05/05 00:16:58;;;;;;;30.25;14.23;;;;;;;;;;5031888;28;20077;-66
2022/05/05 00:19:24;;;;;;;30.25;14.63;;;;;;;;;;5037494;28;20048;-67
2022/05/05 00:21:50;;;;;;;31.58;14.77;;;;;;;;;;5034799;28;20119;-66
2022/05/05 00:24:18;;;;;;;35.13;15.48;;;;;;;;;;5041341;28;20449;-66
2022/05/05 00:26:44;;;;;;;33.63;14.85;;;;;;;;;;5041620;28;20036;-66
2022/05/05 00:29:09;;;;;;;28.63;14.05;;;;;;;;;;5037542;28;20391;-66
2022/05/05 00:31:35;;;;;;;31.77;14.75;;;;;;;;;;5039264;28;20037;-66
2022/05/05 00:34:00;;;;;;;30.55;14.80;;;;;;;;;;5037161;28;20116;-66
2022/05/05 00:36:26;;;;;;;31.08;14.88;;;;;;;;;;5034256;28;20033;-66
2022/05/05 00:38:51;;;;;;;32.90;15.07;;;;;;;;;;5036706;28;20022;-66
2022/05/05 00:41:17;;;;;;;31.80;15.48;;;;;;;;;;5044065;28;20041;-66
2022/05/05 00:43:42;;;;;;;36.28;15.60;;;;;;;;;;5043396;28;20068;-66
2022/05/05 00:46:07;;;;;;;28.02;14.20;;;;;;;;;;5037214;28;20611;-66
2022/05/05 00:48:33;;;;;;;30.23;14.50;;;;;;;;;;5037418;28;20120;-66
2022/05/05 00:50:58;;;;;;;32.75;14.60;;;;;;;;;;5034982;28;20022;-66
2022/05/05 00:53:24;;;;;;;29.30;14.80;;;;;;;;;;5034994;28;20510;-66
2022/05/05 00:56:02;;;;;;;32.88;15.68;;;;;;;;;;5039260;28;20040;-66
2022/05/05 00:58:27;;;;;;;32.60;14.18;;;;;;;;;;5035182;28;20041;-66
2022/05/05 01:00:54;;;;;;;34.80;15.80;;;;;;;;;;5034651;28;20047;-66
2022/05/05 01:03:20;;;;;;;28.25;14.63;;;;;;;;;;5032894;28;20116;-66
2022/05/05 01:05:45;;;;;;;35.22;15.55;;;;;;;;;;5042751;28;20115;-66
2022/05/05 01:08:10;;;;;;;31.05;14.20;;;;;;;;;;5041059;28;20155;-66
2022/05/05 01:10:36;;;;;;;29.05;14.57;;;;;;;;;;5042729;28;20059;-66
2022/05/05 01:13:01;;;;;;;28.02;13.98;;;;;;;;;;5032050;28;20517;-66
2022/05/05 01:15:29;;;;;;;31.23;14.20;;;;;;;;;;5039412;28;20108;-66
2022/05/05 01:17:54;;;;;;;32.08;14.93;;;;;;;;;;5040428;28;20025;-66
2022/05/05 01:20:24;;;;;;;31.42;14.48;;;;;;;;;;5039114;28;20074;-66
2022/05/05 01:22:50;;;;;;;30.83;14.38;;;;;;;;;;5035621;28;20672;-66
2022/05/05 01:28:12;;;;;;;40.17;15.57;;;;;;;;;;5039188;28;20040;-66
2022/05/05 01:30:39;;;;;;;28.58;13.98;;;;;;;;;;5031684;28;20044;-66
2022/05/05 01:33:11;;;;;;;30.35;14.80;;;;;;;;;;5038205;28;20021;-66
2022/05/05 01:35:38;;;;;;;28.93;14.27;;;;;;;;;;5031528;28;20573;-66
2022/05/05 01:38:03;;;;;;;30.65;13.95;;;;;;;;;;5037630;28;20052;-66
2022/05/05 01:40:29;;;;;;;27.77;14.32;;;;;;;;;;5030667;28;20048;-66
2022/05/05 01:42:55;;;;;;;27.92;13.70;;;;;;;;;;5031666;28;20037;-66
2022/05/05 01:45:20;;;;;;;29.88;13.95;;;;;;;;;;5026570;28;20028;-66
2022/05/05 01:47:46;;;;;;;30.80;14.18;;;;;;;;;;5032811;28;20141;-66
2022/05/05 01:50:11;;;;;;;30.17;13.90;;;;;;;;;;5040184;28;20426;-66
2022/05/05 01:52:36;;;;;;;28.35;13.57;;;;;;;;;;5036927;28;20065;-66
2022/05/05 01:55:02;;;;;;;26.92;13.98;;;;;;;;;;5032618;28;20120;-66
2022/05/05 01:57:27;;;;;;;25.13;13.13;;;;;;;;;;5035511;28;20033;-66
2022/05/05 01:59:52;;;;;;;27.63;12.88;;;;;;;;;;5035948;28;20021;-66
2022/05/05 02:02:18;;;;;;;30.23;13.27;;;;;;;;;;5027884;28;20038;-66
2022/05/05 02:04:43;;;;;;;29.17;13.07;;;;;;;;;;5036207;28;20396;-66
2022/05/05 02:07:08;;;;;;;32.63;14.27;;;;;;;;;;5029494;28;20060;-66
2022/05/05 02:09:33;;;;;;;28.48;13.20;;;;;;;;;;5033964;28;20087;-66
2022/05/05 02:11:59;;;;;;;30.65;13.90;;;;;;;;;;5038721;28;20072;-66
2022/05/05 02:14:24;;;;;;;28.10;13.88;;;;;;;;;;5041341;28;20045;-66
2022/05/05 02:16:50;;;;;;;26.58;13.52;;;;;;;;;;5031821;28;20046;-67
2022/05/05 02:19:16;;;;;;;28.08;13.63;;;;;;;;;;5038521;28;20120;-66
2022/05/05 02:21:41;;;;;;;34.33;13.57;;;;;;;;;;5041990;28;20477;-66
2022/05/05 02:24:07;;;;;;;27.02;13.15;;;;;;;;;;5039277;28;20029;-66
2022/05/05 02:26:32;;;;;;;25.80;13.43;;;;;;;;;;5031022;28;20068;-66
2022/05/05 02:28:58;;;;;;;27.02;13.35;;;;;;;;;;5037559;28;20755;-66
2022/05/05 02:31:23;;;;;;;29.70;14.30;;;;;;;;;;5034420;28;20037;-66
2022/05/05 02:33:48;;;;;;;27.52;14.43;;;;;;;;;;5042065;28;20472;-66
2022/05/05 02:38:57;;;;;;;;;;;;;;;;;;5036470;28;20535;-66
2022/05/05 02:41:22;;;;;;;32.45;13.55;;;;;;;;;;5040051;28;19928;-66
2022/05/05 02:43:48;;;;;;;28.50;14.32;;;;;;;;;;5042833;28;20132;-66
2022/05/05 02:46:13;;;;;;;28.70;14.27;;;;;;;;;;5037671;28;20047;-67
2022/05/05 02:48:38;;;;;;;29.13;14.52;;;;;;;;;;5034000;28;20036;-67
2022/05/05 02:51:04;;;;;;;30.35;14.40;;;;;;;;;;5036592;28;20032;-66
2022/05/05 02:56:16;;;;;;;;;;;;;;;;;;5034828;28;20457;-66
2022/05/05 02:58:41;;;;;;;28.08;13.30;;;;;;;;;;5031436;28;19917;-66
2022/05/05 03:01:06;;;;;;;33.55;14.07;;;;;;;;;;5050437;28;20052;-66
2022/05/05 03:03:32;;;;;;;30.02;15.30;;;;;;;;;;5050476;28;20067;-66
2022/05/05 03:05:57;;;;;;;30.17;13.50;;;;;;;;;;5044018;28;20157;-66
2022/05/05 03:08:22;;;;;;;28.35;13.75;;;;;;;;;;5040345;28;20076;-66
2022/05/05 03:10:48;;;;;;;29.25;13.82;;;;;;;;;;5032280;28;20052;-66
2022/05/05 03:13:13;;;;;;;31.38;13.85;;;;;;;;;;5042619;28;20040;-66
2022/05/05 03:15:38;;;;;;;27.33;13.98;;;;;;;;;;5041593;28;20462;-66
2022/05/05 03:18:03;;;;;;;27.13;13.50;;;;;;;;;;5045698;28;20033;-66
2022/05/05 03:20:29;;;;;;;27.85;13.70;;;;;;;;;;5043063;28;20037;-66
2022/05/05 03:22:54;;;;;;;27.95;13.57;;;;;;;;;;5043132;28;20617;-66
2022/05/05 03:25:20;;;;;;;29.42;14.98;;;;;;;;;;5034534;28;20648;-66
2022/05/05 03:27:45;;;;;;;31.25;13.93;;;;;;;;;;5037310;28;20506;-66
2022/05/05 03:30:11;;;;;;;31.17;14.45;;;;;;;;;;5043802;28;20117;-67
2022/05/05 03:32:36;;;;;;;30.73;13.95;;;;;;;;;;5039043;28;20033;-66
2022/05/05 03:35:02;;;;;;;28.40;13.65;;;;;;;;;;5047995;28;20041;-66
2022/05/05 03:37:30;;;;;;;29.88;13.82;;;;;;;;;;5034195;28;20044;-66
2022/05/05 03:39:55;;;;;;;28.70;13.65;;;;;;;;;;5040086;28;20116;-66
2022/05/05 03:42:20;;;;;;;28.73;13.57;;;;;;;;;;5037103;28;20117;-66
2022/05/05 03:44:46;;;;;;;29.00;13.95;;;;;;;;;;5046293;28;20036;-66
2022/05/05 03:47:11;;;;;;;27.63;13.43;;;;;;;;;;5038400;28;20049;-66
2022/05/05 03:49:37;;;;;;;29.38;13.35;;;;;;;;;;5031033;28;20144;-66
2022/05/05 03:52:03;;;;;;;29.60;14.57;;;;;;;;;;5042871;28;20721;-67
2022/05/05 03:54:28;;;;;;;31.15;14.35;;;;;;;;;;5037071;28;20029;-66
2022/05/05 03:56:53;;;;;;;30.63;14.55;;;;;;;;;;5038168;28;20037;-66
2022/05/05 03:59:19;;;;;;;26.20;12.07;;;;;;;;;;5042424;28;20041;-66
2022/05/05 04:01:44;;;;;;;27.10;13.50;;;;;;;;;;5035650;28;20140;-67
2022/05/05 04:04:09;;;;;;;30.52;13.55;;;;;;;;;;5032782;28;20037;-66
2022/05/05 04:06:35;;;;;;;36.38;14.63;;;;;;;;;;5044772;28;20069;-66
2022/05/05 04:09:03;;;;;;;34.55;13.85;;;;;;;;;;5037328;28;20124;-66
2022/05/05 04:11:28;;;;;;;32.30;13.65;;;;;;;;;;5034876;28;20103;-66
2022/05/05 04:13:54;;;;;;;30.00;13.57;;;;;;;;;;5035585;28;20510;-66
2022/05/05 04:16:19;;;;;;;29.13;14.25;;;;;;;;;;5035671;28;20045;-66
2022/05/05 04:18:44;;;;;;;30.17;13.95;;;;;;;;;;5039337;28;20123;-66
2022/05/05 04:21:10;;;;;;;29.48;13.32;;;;;;;;;;5040145;28;20029;-67
2022/05/05 04:23:37;;;;;;;28.00;13.60;;;;;;;;;;5038318;28;20099;-66
2022/05/05 04:26:04;;;;;;;27.08;13.52;;;;;;;;;;5031147;28;20042;-66
2022/05/05 04:28:29;;;;;;;30.52;14.10;;;;;;;;;;5039934;28;20510;-66
2022/05/05 04:30:55;;;;;;;32.00;13.70;;;;;;;;;;5042500;28;20076;-66
2022/05/05 04:33:20;;;;;;;27.33;13.43;;;;;;;;;;5042469;28;20032;-66
2022/05/05 04:35:46;;;;;;;31.17;14.18;;;;;;;;;;5035857;28;20033;-66
2022/05/05 04:38:11;;;;;;;30.55;14.60;;;;;;;;;;5031672;28;20037;-66
2022/05/05 04:40:37;;;;;;;31.08;14.40;;;;;;;;;;5038155;28;20043;-67
2022/05/05 04:43:02;;;;;;;29.77;14.45;;;;;;;;;;5040631;28;20037;-66
2022/05/05 04:45:27;;;;;;;31.75;14.20;;;;;;;;;;5035366;28;20025;-66
2022/05/05 04:47:53;;;;;;;26.83;13.50;;;;;;;;;;5034232;28;20052;-66
2022/05/05 04:50:18;;;;;;;34.67;14.68;;;;;;;;;;5045838;28;20052;-66
2022/05/05 04:52:44;;;;;;;34.90;15.68;;;;;;;;;;5036730;28;20056;-67
2022/05/05 04:55:09;;;;;;;34.47;15.32;;;;;;;;;;5036132;28;20084;-66
2022/05/05 04:57:36;;;;;;;33.75;15.88;;;;;;;;;;5040798;28;20049;-66
2022/05/05 05:00:03;;;;;;;37.40;16.50;;;;;;;;;;5040450;28;20075;-66
2022/05/05 05:02:28;;;;;;;39.10;15.82;;;;;;;;;;5034392;28;20586;-66
2022/05/05 05:04:54;;;;;;;32.70;15.27;;;;;;;;;;5041059;28;20120;-66
2022/05/05 05:07:19;;;;;;;32.53;15.02;;;;;;;;;;5036230;28;20048;-66
2022/05/05 05:09:45;;;;;;;38.08;16.70;;;;;;;;;;5033971;28;20114;-66
2022/05/05 05:12:10;;;;;;;35.75;16.70;;;;;;;;;;5033216;28;20036;-66
2022/05/05 05:14:36;;;;;;;41.45;17.10;;;;;;;;;;5034489;28;20124;-66
2022/05/05 05:17:01;;;;;;;36.72;16.52;;;;;;;;;;5038139;28;20156;-66
2022/05/05 05:19:27;;;;;;;35.85;16.23;;;;;;;;;;5040098;28;20045;-66
2022/05/05 05:21:53;;;;;;;36.50;16.25;;;;;;;;;;5043450;28;20040;-66
2022/05/05 05:24:18;;;;;;;36.08;15.88;;;;;;;;;;5029860;28;20091;-66
2022/05/05 05:26:45;;;;;;;36.33;16.40;;;;;;;;;;5041767;28;20110;-67
2022/05/05 05:29:11;;;;;;;38.08;16.13;;;;;;;;;;5035245;28;20041;-66
2022/05/05 05:31:36;;;;;;;32.15;15.30;;;;;;;;;;5034898;28;20132;-66
2022/05/05 05:34:01;;;;;;;31.90;16.15;;;;;;;;;;5019984;28;20824;-69
2022/05/05 05:36:27;;;;;;;32.22;15.02;;;;;;;;;;5025144;28;20166;-70
2022/05/05 05:38:52;;;;;;;29.35;14.18;;;;;;;;;;5025905;28;20071;-68
2022/05/05 05:41:18;;;;;;;34.95;16.10;;;;;;;;;;5027509;28;20045;-68
2022/05/05 05:43:43;;;;;;;34.65;15.50;;;;;;;;;;5027845;28;20562;-68
2022/05/05 05:46:09;;;;;;;34.08;15.90;;;;;;;;;;5025844;28;20483;-69
2022/05/05 05:48:35;;;;;;;33.65;13.85;;;;;;;;;;5020641;28;20068;-68
2022/05/05 05:51:00;;;;;;;33.88;14.02;;;;;;;;;;5024975;28;20051;-68
2022/05/05 05:53:25;;;;;;;38.80;15.98;;;;;;;;;;5025180;28;20033;-67
2022/05/05 05:55:51;;;;;;;33.70;15.13;;;;;;;;;;5030984;28;20033;-67
2022/05/05 05:58:16;;;;;;;33.97;15.60;;;;;;;;;;5029193;28;20441;-68
2022/05/05 06:00:41;;;;;;;32.35;14.13;;;;;;;;;;5026725;28;20059;-67
2022/05/05 06:05:51;;;;;;;29.05;14.85;;;;;;;;;;5026201;28;20106;-68
2022/05/05 06:08:17;;;;;;;34.63;15.02;;;;;;;;;;5028126;28;20086;-68
2022/05/05 06:10:42;;;;;;;41.22;19.13;;;;;;;;;;5025407;28;20033;-67
2022/05/05 06:13:08;;;;;;;34.78;14.55;;;;;;;;;;5031157;28;20178;-68
2022/05/05 06:15:33;;;;;;;32.65;14.90;;;;;;;;;;5029788;28;20040;-67
2022/05/05 06:17:59;;;;;;;37.00;16.05;;;;;;;;;;5029783;28;20045;-67
2022/05/05 06:20:24;;;;;;;33.42;14.60;;;;;;;;;;5028074;28;20520;-67
2022/05/05 06:22:52;;;;;;;39.47;15.48;;;;;;;;;;5029595;28;20048;-67
2022/05/05 06:25:20;;;;;;;34.67;14.77;;;;;;;;;;5029394;28;20079;-69
2022/05/05 06:27:46;;;;;;;35.20;14.73;;;;;;;;;;5033269;28;20041;-67
2022/05/05 06:30:13;;;;;;;30.88;14.18;;;;;;;;;;5040158;28;20034;-67
2022/05/05 06:32:41;;;;;;;32.92;13.90;;;;;;;;;;5041296;28;20468;-68
2022/05/05 06:35:07;;;;;;;34.17;15.27;;;;;;;;;;5041736;28;20037;-69
2022/05/05 06:37:33;;;;;;;35.88;14.60;;;;;;;;;;5033899;28;20608;-68
2022/05/05 06:40:00;;;;;;;41.47;15.38;;;;;;;;;;5039620;28;20032;-67
2022/05/05 06:42:26;;;;;;;37.10;14.75;;;;;;;;;;5043195;28;20053;-67
2022/05/05 06:44:51;;;;;;;38.38;14.50;;;;;;;;;;5045695;28;20029;-67
2022/05/05 06:47:16;;;;;;;38.22;15.63;;;;;;;;;;5043709;28;20045;-69
2022/05/05 06:49:42;;;;;;;33.97;14.57;;;;;;;;;;5043720;28;20059;-68
2022/05/05 06:52:07;;;;;;;40.85;15.02;;;;;;;;;;5046553;28;20025;-68
2022/05/05 06:54:33;;;;;;;40.42;15.85;;;;;;;;;;5043858;28;20033;-68
2022/05/05 06:56:58;;;;;;;35.83;15.40;;;;;;;;;;5042881;28;20062;-68
2022/05/05 06:59:24;;;;;;;37.40;15.48;;;;;;;;;;5034703;28;21067;-68
2022/05/05 07:01:53;;;;;;;35.15;14.57;;;;;;;;;;5034436;28;20037;-68
2022/05/05 07:07:07;;;;;;;41.15;16.17;;;;;;;;;;5039878;28;20151;-69
2022/05/05 07:12:18;;;;;;;42.35;16.98;;;;;;;;;;5038134;28;20045;-69
2022/05/05 07:14:44;;;;;;;47.13;17.10;;;;;;;;;;5037971;28;20041;-69
2022/05/05 07:17:11;;;;;;;41.25;15.75;;;;;;;;;;5040581;28;20125;-69
2022/05/05 07:19:36;;;;;;;41.40;16.10;;;;;;;;;;5037971;28;20048;-69
2022/05/05 07:22:02;;;;;;;39.42;15.82;;;;;;;;;;5037682;28;20509;-68
2022/05/05 07:24:30;;;;;;;39.25;15.15;;;;;;;;;;5038142;28;20068;-68
2022/05/05 07:26:55;;;;;;;44.78;18.13;;;;;;;;;;5033655;28;20040;-70
2022/05/05 07:29:21;;;;;;;37.65;16.45;;;;;;;;;;5032501;28;20044;-68
2022/05/05 07:31:47;;;;;;;41.10;16.45;;;;;;;;;;5032903;28;20033;-73
2022/05/05 07:34:12;;;;;;;39.92;16.10;;;;;;;;;;5030968;28;20021;-68
2022/05/05 07:36:38;;;;;;;40.25;16.58;;;;;;;;;;5033904;28;20049;-67
2022/05/05 07:39:03;;;;;;;39.20;17.55;;;;;;;;;;5027212;28;20037;-68
2022/05/05 07:41:29;;;;;;;44.25;16.98;;;;;;;;;;5032413;28;20033;-69
2022/05/05 07:43:54;;;;;;;35.75;15.73;;;;;;;;;;5032664;28;20578;-68
2022/05/05 07:46:19;;;;;;;35.53;15.60;;;;;;;;;;5030704;28;20227;-68
2022/05/05 07:48:45;;;;;;;41.47;16.33;;;;;;;;;;5030620;28;20132;-69
2022/05/05 07:51:11;;;;;;;38.85;16.02;;;;;;;;;;5031679;28;20067;-68
2022/05/05 07:53:37;;;;;;;35.75;15.43;;;;;;;;;;5028854;28;20036;-68
2022/05/05 07:56:02;;;;;;;32.25;14.80;;;;;;;;;;5026968;28;20045;-67
2022/05/05 07:58:28;;;;;;;33.13;15.15;;;;;;;;;;5027974;28;20061;-68
2022/05/05 08:00:53;;;;;;;33.95;14.43;;;;;;;;;;5039535;28;20025;-69
2022/05/05 08:03:18;;;;;;;33.97;15.05;;;;;;;;;;5026169;28;20507;-69
2022/05/05 08:05:44;;;;;;;30.38;14.60;;;;;;;;;;5039370;28;20037;-68
2022/05/05 08:08:10;;;;;;;33.85;14.50;;;;;;;;;;5035426;28;20632;-67
2022/05/05 08:10:35;;;;;;;35.22;14.70;;;;;;;;;;5030279;28;20053;-69
2022/05/05 08:13:03;;;;;;;29.30;13.00;;;;;;;;;;5043079;28;20503;-68
2022/05/05 08:15:29;;;;;;;30.08;13.48;;;;;;;;;;5038715;28;20140;-68
2022/05/05 08:17:54;;;;;;;33.50;14.00;;;;;;;;;;5029216;28;20112;-68
2022/05/05 08:20:20;;;;;;;29.23;13.57;;;;;;;;;;5030772;28;20045;-68
2022/05/05 08:22:45;;;;;;;29.48;12.82;;;;;;;;;;5028234;28;20041;-66
2022/05/05 08:30:38;;;;;;;26.13;12.50;;;;;;;;;;5033591;28;20114;-70
2022/05/05 08:33:04;;;;;;;30.92;13.82;;;;;;;;;;5036691;28;20045;-67
2022/05/05 08:35:30;;;;;;;29.85;14.05;;;;;;;;;;5035317;28;20510;-67
2022/05/05 08:37:56;;;;;;;30.92;14.50;;;;;;;;;;5027598;28;20064;-68
2022/05/05 08:40:27;;;;;;;29.08;12.43;;;;;;;;;;5033948;28;20118;-67
2022/05/05 08:42:53;;;;;;;31.10;13.82;;;;;;;;;;5035831;28;20091;-68
2022/05/05 08:45:19;;;;;;;30.02;13.85;;;;;;;;;;5033914;28;20045;-67
2022/05/05 08:47:46;;;;;;;31.88;13.95;;;;;;;;;;5042490;28;20041;-74
2022/05/05 08:50:11;;;;;;;30.13;13.73;;;;;;;;;;5043698;28;20040;-73
2022/05/05 08:52:49;;;;;;;33.40;13.50;;;;;;;;;;5040869;28;20426;-67
2022/05/05 08:55:16;;;;;;;30.52;13.82;;;;;;;;;;5027659;28;20043;-72
2022/05/05 08:57:43;;;;;;;33.20;13.98;;;;;;;;;;5026900;28;20046;-70
2022/05/05 09:00:11;;;;;;;34.10;14.82;;;;;;;;;;5029031;28;20041;-67
2022/05/05 09:02:38;;;;;;;33.63;13.90;;;;;;;;;;5028259;28;20033;-67
2022/05/05 09:05:04;;;;;;;29.42;13.63;;;;;;;;;;5030519;28;20029;-70
2022/05/05 09:07:49;;;;;;;30.23;15.48;;;;;;;;;;5025885;28;20091;-69
2022/05/05 09:10:16;;;;;;;29.35;13.23;;;;;;;;;;5033041;28;20032;-69
2022/05/05 09:12:41;;;;;;;32.28;14.70;;;;;;;;;;5029888;28;20053;-68
2022/05/05 09:15:09;;;;;;;31.30;14.60;;;;;;;;;;5027786;28;20070;-68
2022/05/05 09:17:35;;;;;;;31.90;14.68;;;;;;;;;;5027598;28;20037;-69
2022/05/05 09:20:03;;;;;;;29.70;14.27;;;;;;;;;;5026534;28;20405;-68
2022/05/05 09:22:29;;;;;;;33.60;14.40;;;;;;;;;;5029647;28;20036;-68
2022/05/05 09:24:57;;;;;;;30.67;13.93;;;;;;;;;;5034047;28;20021;-69
2022/05/05 09:27:33;;;;;;;31.00;14.40;;;;;;;;;;5033172;28;20093;-69
2022/05/05 09:30:13;;;;;;;30.75;14.30;;;;;;;;;;5023866;28;20068;-68
2022/05/05 09:32:43;;;;;;;32.22;14.13;;;;;;;;;;5032601;28;20712;-68
2022/05/05 09:35:09;;;;;;;35.05;14.95;;;;;;;;;;5033712;28;20132;-69
2022/05/05 09:37:35;;;;;;;34.35;14.75;;;;;;;;;;5032992;28;20116;-68
2022/05/05 09:40:03;;;;;;;34.50;15.15;;;;;;;;;;5030487;28;20115;-68
2022/05/05 09:42:37;;;;;;;30.10;14.35;;;;;;;;;;5028283;28;20049;-68
2022/05/05 09:45:22;;;;;;;32.88;15.23;;;;;;;;;;5031299;28;20788;-72
2022/05/05 09:47:49;;;;;;;30.73;14.00;;;;;;;;;;5035483;28;20040;-68
2022/05/05 09:50:15;;;;;;;34.05;15.00;;;;;;;;;;5045352;28;20117;-69
2022/05/05 09:58:15;;;;;;;28.15;13.55;;;;;;;;;;5035627;28;20087;-68
2022/05/05 10:00:44;;;;;;;30.08;14.80;;;;;;;;;;5036092;28;20135;-69
2022/05/05 10:05:58;;;;;;;30.30;14.45;;;;;;;;;;5035219;28;20572;-68
2022/05/05 10:08:37;;;;;;;32.72;16.17;;;;;;;;;;5035381;28;20040;-67
2022/05/05 10:11:14;;;;;;;30.75;14.75;;;;;;;;;;5034573;28;20055;-69
2022/05/05 10:13:40;;;;;;;28.13;13.27;;;;;;;;;;5032828;28;20024;-68
2022/05/05 10:16:06;;;;;;;29.27;14.07;;;;;;;;;;5027321;28;20017;-69
2022/05/05 10:18:33;;;;;;;29.27;14.57;;;;;;;;;;5026840;28;20037;-68
2022/05/05 10:21:00;;;;;;;30.55;14.27;;;;;;;;;;5031318;28;20147;-68
2022/05/05 10:23:28;;;;;;;30.92;14.73;;;;;;;;;;5025654;28;20575;-69
2022/05/05 10:25:55;;;;;;;28.85;14.02;;;;;;;;;;5037893;28;20796;-68
2022/05/05 10:28:35;;;;;;;29.48;13.75;;;;;;;;;;5027281;28;20032;-67
2022/05/05 10:31:01;;;;;;;28.85;14.43;;;;;;;;;;5039724;28;20547;-69
2022/05/05 10:34:01;;;;;;;27.92;13.52;;;;;;;;;;5035993;28;20033;-69
2022/05/05 10:36:28;;;;;;;25.45;12.82;;;;;;;;;;5041780;28;20033;-69
2022/05/05 10:38:54;;;;;;;30.90;14.27;;;;;;;;;;5041501;28;20037;-68
2022/05/05 10:41:31;;;;;;;28.83;14.35;;;;;;;;;;5025693;28;20041;-67
2022/05/05 10:44:23;;;;;;;26.10;14.82;;;;;;;;;;5027459;28;20120;-68
2022/05/05 10:46:51;;;;;;;27.60;13.85;;;;;;;;;;5029492;28;20025;-69
2022/05/05 10:49:37;;;;;;;26.83;13.85;;;;;;;;;;5030682;28;20031;-69
2022/05/05 10:52:08;;;;;;;26.95;13.90;;;;;;;;;;5042680;28;20041;-69
2022/05/05 10:54:33;;;;;;;27.08;13.07;;;;;;;;;;5038147;28;20060;-67
2022/05/05 10:57:24;;;;;;;27.85;13.88;;;;;;;;;;5031079;28;20597;-69
2022/05/05 11:00:10;;;;;;;27.35;13.30;;;;;;;;;;5023879;28;20096;-69
2022/05/05 11:02:37;;;;;;;24.70;13.02;;;;;;;;;;5036547;28;20033;-69
2022/05/05 11:05:29;;;;;;;26.00;14.32;;;;;;;;;;5037908;28;20044;-68
2022/05/05 11:08:20;;;;;;;25.30;13.50;;;;;;;;;;5032643;28;20970;-69
2022/05/05 11:13:43;;;;;;;23.63;13.40;;;;;;;;;;5017239;28;20033;-71
2022/05/05 11:22:06;;;;;;;25.55;12.73;;;;;;;;;;5028465;28;20128;-71
2022/05/05 11:24:32;;;;;;;27.30;13.55;;;;;;;;;;5029841;28;20041;-71
2022/05/05 11:26:57;;;;;;;25.52;13.52;;;;;;;;;;5029641;28;20404;-71
2022/05/05 11:29:28;;;;;;;25.77;13.30;;;;;;;;;;5030763;28;20044;-71
2022/05/05 11:32:02;;;;;;;25.38;14.27;;;;;;;;;;5037692;28;20061;-72
2022/05/05 11:34:35;;;;;;;29.90;14.15;;;;;;;;;;5039822;28;20025;-72
2022/05/05 11:37:01;;;;;;;24.08;13.35;;;;;;;;;;5044186;28;20036;-73
2022/05/05 11:39:28;;;;;;;26.63;13.40;;;;;;;;;;5045326;28;20120;-74
2022/05/05 11:42:01;;;;;;;29.23;15.40;;;;;;;;;;5038583;28;20037;-69
2022/05/05 11:44:27;;;;;;;28.23;13.53;;;;;;;;;;5030406;28;20064;-71
2022/05/05 11:46:54;;;;;;;24.05;13.40;;;;;;;;;;5039178;28;20125;-73
2022/05/05 11:49:19;;;;;;;25.92;13.40;;;;;;;;;;5029009;28;20029;-72
2022/05/05 11:51:45;;;;;;;23.52;13.50;;;;;;;;;;5028012;28;20029;-73
2022/05/05 11:54:23;;;;;;;23.75;13.45;;;;;;;;;;5045548;28;20040;-73
2022/05/05 11:56:51;;;;;;;28.98;14.07;;;;;;;;;;5045679;28;20103;-73
2022/05/05 12:02:10;;;;;;;28.63;14.70;;;;;;;;;;5043724;28;20051;-72
2022/05/05 12:04:41;;;;;;;24.35;12.60;;;;;;;;;;5042519;28;20033;-71
2022/05/05 12:07:09;;;;;;;27.67;13.80;;;;;;;;;;5029591;28;20080;-70
2022/05/05 12:09:36;;;;;;;27.30;14.43;;;;;;;;;;5039834;28;20514;-69
2022/05/05 12:12:13;;;;;;;27.38;14.18;;;;;;;;;;5042276;28;20079;-70
2022/05/05 12:14:41;;;;;;;25.85;13.90;;;;;;;;;;5030225;28;20037;-71
2022/05/05 12:17:07;;;;;;;25.92;13.43;;;;;;;;;;5044560;28;20112;-70
2022/05/05 12:19:43;;;;;;;24.77;14.50;;;;;;;;;;5044588;28;20029;-71
2022/05/05 12:22:08;;;;;;;27.20;15.13;;;;;;;;;;5028209;28;20030;-71
2022/05/05 12:24:34;;;;;;;24.15;14.32;;;;;;;;;;5037382;28;20049;-71
2022/05/05 12:27:11;;;;;;;25.50;12.80;;;;;;;;;;5040068;28;20040;-73
2022/05/05 12:29:45;;;;;;;20.92;11.55;;;;;;;;;;5033887;28;20043;-73
2022/05/05 12:32:13;;;;;;;20.65;11.48;;;;;;;;;;5039932;28;20033;-72
2022/05/05 12:34:39;;;;;;;24.20;13.82;;;;;;;;;;5031961;28;20111;-68
2022/05/05 12:37:11;;;;;;;25.00;13.20;;;;;;;;;;5029885;28;20019;-67
2022/05/05 12:39:53;;;;;;;23.10;12.43;;;;;;;;;;5031543;28;20438;-68
2022/05/05 12:42:21;;;;;;;28.70;12.73;;;;;;;;;;5033338;28;20078;-70
2022/05/05 12:44:49;;;;;;;27.27;13.13;;;;;;;;;;5029496;28;20378;-70
2022/05/05 12:47:20;;;;;;;22.55;11.15;;;;;;;;;;5045124;28;20083;-70
2022/05/05 12:49:45;;;;;;;22.73;11.05;;;;;;;;;;5045416;28;20032;-70
2022/05/05 12:59:36;;;;;;;22.45;10.48;;;;;;;;;;5044834;28;20033;-70
2022/05/05 13:00:24;;;;;;;22.05;11.40;;;;;;;;;;5026317;28;20091;-70
2022/05/05 13:02:50;;;;;;;19.38;10.13;;;;;;;;;;5026871;28;20029;-70
2022/05/05 13:05:16;;;;;;;19.15;9.13;;;;;;;;;;5032020;28;20132;-69
2022/05/05 13:07:42;;;;;;;16.58;8.68;;;;;;;;;;5043494;28;20049;-70
2022/05/05 13:10:07;;;;;;;18.98;9.65;;;;;;;;;;5041798;28;20029;-70
2022/05/05 13:12:32;;;;;;;17.88;9.85;;;;;;;;;;5034983;28;20206;-70
2022/05/05 13:14:58;;;;;;;19.27;10.32;;;;;;;;;;5040554;28;20052;-70
2022/05/05 13:17:23;;;;;;;20.40;11.32;;;;;;;;;;5042371;28;20052;-70
2022/05/05 13:19:48;;;;;;;21.70;12.68;;;;;;;;;;5027767;28;20052;-70
2022/05/05 13:22:14;;;;;;;23.20;11.55;;;;;;;;;;5034450;28;20025;-70
2022/05/05 13:24:39;;;;;;;17.95;11.10;;;;;;;;;;5037448;28;20048;-70
2022/05/05 13:27:05;;;;;;;23.08;11.82;;;;;;;;;;5030156;28;20079;-70
2022/05/05 13:29:30;;;;;;;21.83;12.02;;;;;;;;;;5032190;28;20033;-70
2022/05/05 13:31:56;;;;;;;21.17;11.45;;;;;;;;;;5036395;28;20034;-71
2022/05/05 13:34:21;;;;;;;22.23;11.93;;;;;;;;;;5044556;28;20140;-70
2022/05/05 13:36:47;;;;;;;24.88;12.30;;;;;;;;;;5042698;28;20425;-68
2022/05/05 13:39:14;;;;;;;25.10;12.13;;;;;;;;;;5037163;28;20037;-68
2022/05/05 13:41:40;;;;;;;24.38;12.85;;;;;;;;;;5040972;28;20132;-69
2022/05/05 13:44:05;;;;;;;25.77;13.10;;;;;;;;;;5028129;28;20128;-70
2022/05/05 13:46:32;;;;;;;22.40;13.15;;;;;;;;;;5005010;28;20053;-72
2022/05/05 13:48:57;;;;;;;24.88;13.32;;;;;;;;;;5032794;28;20021;-70
2022/05/05 13:51:23;;;;;;;24.75;13.35;;;;;;;;;;5031129;28;20021;-70
2022/05/05 13:53:48;;;;;;;22.27;13.52;;;;;;;;;;5031467;28;20134;-69
2022/05/05 13:56:13;;;;;;;24.08;12.68;;;;;;;;;;5033778;28;20425;-68
2022/05/05 13:58:39;;;;;;;22.23;11.82;;;;;;;;;;5041208;28;20037;-68
2022/05/05 14:01:04;;;;;;;23.52;11.18;;;;;;;;;;5029251;28;20021;-68
2022/05/05 14:03:30;;;;;;;20.00;10.93;;;;;;;;;;5026247;28;20117;-69
2022/05/05 14:05:55;;;;;;;19.30;10.82;;;;;;;;;;5033895;28;20534;-68
2022/05/05 14:13:48;;;;;;;17.73;9.65;;;;;;;;;;5036265;28;20537;-68
2022/05/05 14:16:14;;;;;;;19.02;10.02;;;;;;;;;;5029162;28;20037;-69
2022/05/05 14:18:39;;;;;;;18.70;9.95;;;;;;;;;;5025921;28;20029;-67
2022/05/05 14:21:05;;;;;;;19.65;9.45;;;;;;;;;;5036908;28;20037;-70
2022/05/05 14:23:30;;;;;;;17.90;9.20;;;;;;;;;;5030208;28;20488;-69
2022/05/05 14:25:56;;;;;;;20.70;10.63;;;;;;;;;;5043746;28;20041;-69
2022/05/05 14:28:21;;;;;;;19.67;10.60;;;;;;;;;;5039209;28;20694;-69
2022/05/05 14:30:46;;;;;;;18.65;10.07;;;;;;;;;;5031714;28;20028;-70
2022/05/05 14:33:12;;;;;;;19.17;9.20;;;;;;;;;;5028059;28;20029;-70
2022/05/05 14:35:38;;;;;;;16.95;9.38;;;;;;;;;;5039510;28;20053;-70
2022/05/05 14:38:04;;;;;;;24.55;11.20;;;;;;;;;;5037370;28;20037;-70
2022/05/05 14:40:30;;;;;;;19.80;11.27;;;;;;;;;;5045014;28;20738;-70
2022/05/05 14:42:56;;;;;;;20.67;11.27;;;;;;;;;;5044198;28;20029;-70
2022/05/05 14:45:21;;;;;;;23.05;11.15;;;;;;;;;;5024075;28;20044;-71
2022/05/05 14:47:47;;;;;;;23.60;12.52;;;;;;;;;;5028511;28;20069;-70
2022/05/05 14:50:13;;;;;;;26.60;11.70;;;;;;;;;;5046479;28;20033;-70
2022/05/05 14:52:41;;;;;;;25.52;12.95;;;;;;;;;;5046655;28;20836;-69
2022/05/05 14:55:07;;;;;;;25.10;12.65;;;;;;;;;;5036611;28;20064;-69
2022/05/05 14:57:33;;;;;;;26.10;13.38;;;;;;;;;;5029345;28;20032;-70
2022/05/05 14:59:58;;;;;;;20.63;11.70;;;;;;;;;;5034241;28;20030;-70
2022/05/05 15:02:24;;;;;;;22.50;12.73;;;;;;;;;;5030644;28;20033;-70
2022/05/05 15:04:49;;;;;;;20.80;11.70;;;;;;;;;;5031600;28;20120;-70
2022/05/05 15:07:14;;;;;;;24.95;12.15;;;;;;;;;;5042178;28;20049;-70
2022/05/05 15:09:40;;;;;;;21.98;12.23;;;;;;;;;;5047831;28;20024;-70
2022/05/05 15:12:06;;;;;;;24.77;11.93;;;;;;;;;;5033396;28;20030;-70
2022/05/05 15:14:32;;;;;;;24.17;12.02;;;;;;;;;;5044363;28;20511;-70